sensor_id;sensor_type;location;lat;lon;timestamp;P1;P2;P0
77411;PMS7003;66484;49.968;19.140;2023-02-11T00:01:17;103.75;77.00;51.50
77411;PMS7003;66484;49.968;19.140;2023-02-11T00:03:54;108.50;87.00;52.50
77411;PMS7003;66484;49.968;19.140;2023-02-11T00:06:20;112.75;84.50;52.00
77411;PMS7003;66484;49.968;19.140;2023-02-11T00:08:47;118.75;102.00;57.25
77411;PMS7003;66484;49.968;19.140;2023-02-11T00:11:14;108.25;82.50;51.00
77411;PMS7003;66484;49.968;19.140;2023-02-11T00:13:42;112.25;88.00;51.50
77411;PMS7003;66484;49.968;19.140;2023-02-11T00:16:12;110.00;89.00;56.00
77411;PMS7003;66484;49.968;19.140;2023-02-11T00:18:39;104.00;84.50;52.00
77411;PMS7003;66484;49.968;19.140;2023-02-11T00:21:12;114.00;89.50;54.75
77411;PMS7003;66484;49.968;19.140;2023-02-11T00:23:42;96.50;75.25;43.50
77411;PMS7003;66484;49.968;19.140;2023-02-11T00:26:12;105.75;77.25;49.50
77411;PMS7003;66484;49.968;19.140;2023-02-11T00:28:46;106.75;78.25;49.00
77411;PMS7003;66484;49.968;19.140;2023-02-11T00:31:13;97.50;74.50;45.50
77411;PMS7003;66484;49.968;19.140;2023-02-11T00:33:41;101.00;75.50;47.00
77411;PMS7003;66484;49.968;19.140;2023-02-11T00:36:08;97.50;75.25;49.00
77411;PMS7003;66484;49.968;19.140;2023-02-11T00:38:39;103.50;81.25;49.00
77411;PMS7003;66484;49.968;19.140;2023-02-11T00:41:06;100.50;78.00;49.00
77411;PMS7003;66484;49.968;19.140;2023-02-11T00:43:33;102.00;78.25;50.00
77411;PMS7003;66484;49.968;19.140;2023-02-11T00:45:59;99.00;77.75;49.00
77411;PMS7003;66484;49.968;19.140;2023-02-11T00:48:26;88.00;69.25;47.00
77411;PMS7003;66484;49.968;19.140;2023-02-11T00:50:51;91.00;65.50;45.00
77411;PMS7003;66484;49.968;19.140;2023-02-11T00:53:17;96.25;72.50;46.00
77411;PMS7003;66484;49.968;19.140;2023-02-11T00:55:43;78.25;63.50;34.00
77411;PMS7003;66484;49.968;19.140;2023-02-11T00:58:10;100.00;75.50;48.50
77411;PMS7003;66484;49.968;19.140;2023-02-11T01:00:35;101.00;75.25;48.50
77411;PMS7003;66484;49.968;19.140;2023-02-11T01:03:02;92.50;75.25;49.00
77411;PMS7003;66484;49.968;19.140;2023-02-11T01:05:27;100.25;80.00;51.50
77411;PMS7003;66484;49.968;19.140;2023-02-11T01:07:54;82.75;67.50;45.00
77411;PMS7003;66484;49.968;19.140;2023-02-11T01:10:20;93.25;69.50;42.50
77411;PMS7003;66484;49.968;19.140;2023-02-11T01:12:46;92.50;72.25;43.00
77411;PMS7003;66484;49.968;19.140;2023-02-11T01:15:16;86.50;69.25;45.00
77411;PMS7003;66484;49.968;19.140;2023-02-11T01:17:43;85.25;66.25;45.25
77411;PMS7003;66484;49.968;19.140;2023-02-11T01:20:14;84.00;68.00;43.00
77411;PMS7003;66484;49.968;19.140;2023-02-11T01:22:41;97.50;71.50;45.50
77411;PMS7003;66484;49.968;19.140;2023-02-11T01:25:07;88.75;67.25;43.00
77411;PMS7003;66484;49.968;19.140;2023-02-11T01:27:33;83.00;62.00;42.00
77411;PMS7003;66484;49.968;19.140;2023-02-11T01:29:59;78.50;62.50;42.25
77411;PMS7003;66484;49.968;19.140;2023-02-11T01:32:26;85.75;68.25;45.25
77411;PMS7003;66484;49.968;19.140;2023-02-11T01:34:52;86.50;69.00;46.25
77411;PMS7003;66484;49.968;19.140;2023-02-11T01:37:18;100.75;75.00;48.25
77411;PMS7003;66484;49.968;19.140;2023-02-11T01:39:44;86.50;64.00;43.00
77411;PMS7003;66484;49.968;19.140;2023-02-11T01:42:20;88.25;65.75;42.25
77411;PMS7003;66484;49.968;19.140;2023-02-11T01:44:51;78.25;61.00;40.00
77411;PMS7003;66484;49.968;19.140;2023-02-11T01:47:18;79.00;61.00;39.25
77411;PMS7003;66484;49.968;19.140;2023-02-11T01:49:49;82.25;63.75;40.50
77411;PMS7003;66484;49.968;19.140;2023-02-11T01:52:18;85.00;63.50;41.00
77411;PMS7003;66484;49.968;19.140;2023-02-11T01:54:53;91.25;69.00;45.50
77411;PMS7003;66484;49.968;19.140;2023-02-11T01:57:42;87.25;68.00;43.50
77411;PMS7003;66484;49.968;19.140;2023-02-11T02:00:12;89.25;69.25;42.75
77411;PMS7003;66484;49.968;19.140;2023-02-11T02:08:30;78.50;60.25;37.50
77411;PMS7003;66484;49.968;19.140;2023-02-11T02:11:00;69.25;56.25;39.00
77411;PMS7003;66484;49.968;19.140;2023-02-11T02:13:29;72.00;60.25;42.00
77411;PMS7003;66484;49.968;19.140;2023-02-11T02:15:58;79.25;62.50;39.25
77411;PMS7003;66484;49.968;19.140;2023-02-11T02:18:34;81.75;63.50;39.00
77411;PMS7003;66484;49.968;19.140;2023-02-11T02:35:39;77.50;59.00;38.50
77411;PMS7003;66484;49.968;19.140;2023-02-11T02:40:51;66.00;54.25;38.50
77411;PMS7003;66484;49.968;19.140;2023-02-11T02:43:21;65.00;52.00;36.00
77411;PMS7003;66484;49.968;19.140;2023-02-11T02:45:48;74.00;60.00;38.00
77411;PMS7003;66484;49.968;19.140;2023-02-11T02:48:28;62.75;50.25;34.00
77411;PMS7003;66484;49.968;19.140;2023-02-11T02:51:03;52.75;44.00;29.50
77411;PMS7003;66484;49.968;19.140;2023-02-11T02:59:36;77.25;60.00;39.50
77411;PMS7003;66484;49.968;19.140;2023-02-11T03:02:30;83.75;65.75;43.25
77411;PMS7003;66484;49.968;19.140;2023-02-11T03:07:39;82.25;66.00;42.00
77411;PMS7003;66484;49.968;19.140;2023-02-11T03:10:53;71.00;57.50;39.75
77411;PMS7003;66484;49.968;19.140;2023-02-11T03:12:57;78.75;65.50;44.00
77411;PMS7003;66484;49.968;19.140;2023-02-11T03:15:25;78.00;61.00;42.75
77411;PMS7003;66484;49.968;19.140;2023-02-11T03:17:55;67.00;56.00;38.50
77411;PMS7003;66484;49.968;19.140;2023-02-11T03:20:23;75.50;60.25;38.50
77411;PMS7003;66484;49.968;19.140;2023-02-11T03:22:52;58.50;48.25;34.50
77411;PMS7003;66484;49.968;19.140;2023-02-11T03:25:22;55.75;45.75;33.00
77411;PMS7003;66484;49.968;19.140;2023-02-11T03:28:03;65.25;52.50;35.50
77411;PMS7003;66484;49.968;19.140;2023-02-11T03:30:34;68.50;54.50;33.75
77411;PMS7003;66484;49.968;19.140;2023-02-11T03:33:17;67.50;50.25;34.00
77411;PMS7003;66484;49.968;19.140;2023-02-11T03:35:55;58.25;49.50;32.25
77411;PMS7003;66484;49.968;19.140;2023-02-11T03:38:27;68.25;55.50;35.50
77411;PMS7003;66484;49.968;19.140;2023-02-11T03:40:56;81.00;66.00;43.50
77411;PMS7003;66484;49.968;19.140;2023-02-11T03:43:31;87.75;68.50;46.50
77411;PMS7003;66484;49.968;19.140;2023-02-11T03:45:59;85.00;66.00;45.25
77411;PMS7003;66484;49.968;19.140;2023-02-11T03:48:31;96.00;73.50;46.00
77411;PMS7003;66484;49.968;19.140;2023-02-11T03:50:58;74.50;59.25;36.75
77411;PMS7003;66484;49.968;19.140;2023-02-11T03:53:27;85.00;59.50;39.00
77411;PMS7003;66484;49.968;19.140;2023-02-11T03:55:54;73.50;54.50;35.50
77411;PMS7003;66484;49.968;19.140;2023-02-11T03:58:21;67.50;54.25;35.50
77411;PMS7003;66484;49.968;19.140;2023-02-11T04:00:47;74.75;61.75;39.50
77411;PMS7003;66484;49.968;19.140;2023-02-11T04:03:13;69.00;54.50;36.00
77411;PMS7003;66484;49.968;19.140;2023-02-11T04:05:40;65.75;51.75;35.50
77411;PMS7003;66484;49.968;19.140;2023-02-11T04:08:06;78.50;61.25;39.00
77411;PMS7003;66484;49.968;19.140;2023-02-11T04:10:32;69.75;53.00;34.00
77411;PMS7003;66484;49.968;19.140;2023-02-11T04:12:58;63.00;51.25;35.50
77411;PMS7003;66484;49.968;19.140;2023-02-11T04:15:24;67.50;54.00;36.50
77411;PMS7003;66484;49.968;19.140;2023-02-11T04:17:50;65.00;49.75;30.50
77411;PMS7003;66484;49.968;19.140;2023-02-11T04:20:16;73.75;50.75;33.00
77411;PMS7003;66484;49.968;19.140;2023-02-11T04:22:42;53.75;49.00;32.00
77411;PMS7003;66484;49.968;19.140;2023-02-11T04:25:08;63.50;54.00;37.00
77411;PMS7003;66484;49.968;19.140;2023-02-11T04:27:35;38.50;31.00;27.25
77411;PMS7003;66484;49.968;19.140;2023-02-11T04:30:01;50.75;45.00;33.00
77411;PMS7003;66484;49.968;19.140;2023-02-11T04:32:28;46.25;41.50;29.00
77411;PMS7003;66484;49.968;19.140;2023-02-11T04:34:53;44.25;38.00;29.00
77411;PMS7003;66484;49.968;19.140;2023-02-11T04:37:20;64.00;48.25;33.25
77411;PMS7003;66484;49.968;19.140;2023-02-11T04:39:45;48.50;47.00;33.00
77411;PMS7003;66484;49.968;19.140;2023-02-11T04:42:11;50.00;42.75;28.50
77411;PMS7003;66484;49.968;19.140;2023-02-11T04:44:37;48.75;43.25;30.00
77411;PMS7003;66484;49.968;19.140;2023-02-11T04:47:03;54.50;43.25;29.50
77411;PMS7003;66484;49.968;19.140;2023-02-11T04:49:29;41.50;36.00;21.50
77411;PMS7003;66484;49.968;19.140;2023-02-11T04:51:55;27.25;19.75;12.75
77411;PMS7003;66484;49.968;19.140;2023-02-11T04:54:21;41.25;35.00;21.75
77411;PMS7003;66484;49.968;19.140;2023-02-11T04:56:47;32.50;24.25;16.00
77411;PMS7003;66484;49.968;19.140;2023-02-11T04:59:14;34.25;27.00;19.75
77411;PMS7003;66484;49.968;19.140;2023-02-11T05:01:40;28.00;28.00;23.50
77411;PMS7003;66484;49.968;19.140;2023-02-11T05:04:06;36.50;27.50;20.50
77411;PMS7003;66484;49.968;19.140;2023-02-11T05:06:32;29.50;25.25;19.50
77411;PMS7003;66484;49.968;19.140;2023-02-11T05:08:58;18.50;14.00;7.00
77411;PMS7003;66484;49.968;19.140;2023-02-11T05:11:24;31.00;25.25;15.75
77411;PMS7003;66484;49.968;19.140;2023-02-11T05:13:50;27.25;24.00;18.00
77411;PMS7003;66484;49.968;19.140;2023-02-11T05:16:17;34.50;25.75;20.00
77411;PMS7003;66484;49.968;19.140;2023-02-11T05:18:44;33.50;32.00;23.50
77411;PMS7003;66484;49.968;19.140;2023-02-11T05:21:11;37.25;28.50;21.75
77411;PMS7003;66484;49.968;19.140;2023-02-11T05:23:39;45.00;33.50;20.00
77411;PMS7003;66484;49.968;19.140;2023-02-11T05:26:06;37.25;28.00;17.50
77411;PMS7003;66484;49.968;19.140;2023-02-11T05:28:32;26.25;24.25;18.50
77411;PMS7003;66484;49.968;19.140;2023-02-11T05:30:59;44.00;37.50;23.50
77411;PMS7003;66484;49.968;19.140;2023-02-11T05:33:25;43.75;37.75;25.25
77411;PMS7003;66484;49.968;19.140;2023-02-11T05:35:56;33.75;25.75;18.00
77411;PMS7003;66484;49.968;19.140;2023-02-11T05:38:30;28.75;22.25;15.25
77411;PMS7003;66484;49.968;19.140;2023-02-11T05:40:56;28.75;24.00;18.00
77411;PMS7003;66484;49.968;19.140;2023-02-11T05:43:22;44.00;32.75;21.00
77411;PMS7003;66484;49.968;19.140;2023-02-11T05:45:48;41.00;41.00;24.50
77411;PMS7003;66484;49.968;19.140;2023-02-11T05:48:14;31.50;20.50;16.00
77411;PMS7003;66484;49.968;19.140;2023-02-11T05:50:40;36.50;30.50;19.00
77411;PMS7003;66484;49.968;19.140;2023-02-11T05:53:06;36.00;26.00;19.50
77411;PMS7003;66484;49.968;19.140;2023-02-11T05:55:32;41.75;29.00;21.00
77411;PMS7003;66484;49.968;19.140;2023-02-11T05:57:58;42.00;37.75;25.75
77411;PMS7003;66484;49.968;19.140;2023-02-11T06:00:24;27.00;25.25;18.25
77411;PMS7003;66484;49.968;19.140;2023-02-11T06:02:50;33.75;26.75;20.75
77411;PMS7003;66484;49.968;19.140;2023-02-11T06:05:17;27.25;26.00;18.75
77411;PMS7003;66484;49.968;19.140;2023-02-11T06:07:43;36.50;32.25;23.00
77411;PMS7003;66484;49.968;19.140;2023-02-11T06:10:09;26.75;19.25;12.50
77411;PMS7003;66484;49.968;19.140;2023-02-11T06:12:36;28.75;26.25;18.50
77411;PMS7003;66484;49.968;19.140;2023-02-11T06:15:02;31.50;28.00;20.00
77411;PMS7003;66484;49.968;19.140;2023-02-11T06:17:28;24.25;24.25;21.00
77411;PMS7003;66484;49.968;19.140;2023-02-11T06:20:01;35.25;30.00;19.50
77411;PMS7003;66484;49.968;19.140;2023-02-11T06:22:29;36.00;32.00;27.00
77411;PMS7003;66484;49.968;19.140;2023-02-11T06:24:55;30.25;26.75;17.00
77411;PMS7003;66484;49.968;19.140;2023-02-11T06:27:20;40.50;32.00;24.75
77411;PMS7003;66484;49.968;19.140;2023-02-11T06:29:47;39.00;37.25;22.75
77411;PMS7003;66484;49.968;19.140;2023-02-11T06:32:13;41.00;32.25;22.00
77411;PMS7003;66484;49.968;19.140;2023-02-11T06:34:39;38.00;35.75;20.50
77411;PMS7003;66484;49.968;19.140;2023-02-11T06:37:05;27.00;25.75;19.75
77411;PMS7003;66484;49.968;19.140;2023-02-11T06:39:31;46.00;36.25;25.25
77411;PMS7003;66484;49.968;19.140;2023-02-11T06:41:57;58.25;42.00;26.00
77411;PMS7003;66484;49.968;19.140;2023-02-11T06:44:23;50.00;45.00;29.00
77411;PMS7003;66484;49.968;19.140;2023-02-11T06:46:49;43.50;33.25;23.00
77411;PMS7003;66484;49.968;19.140;2023-02-11T06:49:15;30.75;26.00;17.50
77411;PMS7003;66484;49.968;19.140;2023-02-11T06:51:41;32.75;31.50;25.00
77411;PMS7003;66484;49.968;19.140;2023-02-11T06:54:07;34.75;29.75;18.25
77411;PMS7003;66484;49.968;19.140;2023-02-11T06:56:33;39.25;29.00;20.25
77411;PMS7003;66484;49.968;19.140;2023-02-11T06:59:01;21.75;12.25;9.00
77411;PMS7003;66484;49.968;19.140;2023-02-11T07:01:27;35.75;30.75;21.00
77411;PMS7003;66484;49.968;19.140;2023-02-11T07:03:53;37.75;33.75;23.00
77411;PMS7003;66484;49.968;19.140;2023-02-11T07:06:20;40.75;30.25;18.50
77411;PMS7003;66484;49.968;19.140;2023-02-11T07:08:47;30.50;27.75;21.00
77411;PMS7003;66484;49.968;19.140;2023-02-11T07:11:15;30.50;22.25;18.00
77411;PMS7003;66484;49.968;19.140;2023-02-11T07:13:46;47.00;38.00;29.50
77411;PMS7003;66484;49.968;19.140;2023-02-11T07:16:13;40.00;35.00;24.50
77411;PMS7003;66484;49.968;19.140;2023-02-11T07:18:40;41.75;34.50;18.00
77411;PMS7003;66484;49.968;19.140;2023-02-11T07:21:06;37.50;26.00;19.00
77411;PMS7003;66484;49.968;19.140;2023-02-11T07:23:34;45.00;37.50;24.25
77411;PMS7003;66484;49.968;19.140;2023-02-11T07:26:04;45.75;40.00;30.00
77411;PMS7003;66484;49.968;19.140;2023-02-11T07:28:33;61.00;47.50;30.00
77411;PMS7003;66484;49.968;19.140;2023-02-11T07:31:04;40.00;34.25;27.75
77411;PMS7003;66484;49.968;19.140;2023-02-11T07:33:34;58.25;47.50;30.50
77411;PMS7003;66484;49.968;19.140;2023-02-11T07:36:01;64.50;47.25;29.25
77411;PMS7003;66484;49.968;19.140;2023-02-11T07:38:30;47.75;39.25;25.00
77411;PMS7003;66484;49.968;19.140;2023-02-11T07:41:06;46.25;40.25;30.00
77411;PMS7003;66484;49.968;19.140;2023-02-11T07:43:34;51.75;40.25;30.50
77411;PMS7003;66484;49.968;19.140;2023-02-11T07:46:04;29.75;25.75;16.50
77411;PMS7003;66484;49.968;19.140;2023-02-11T07:48:35;38.25;35.00;26.50
77411;PMS7003;66484;49.968;19.140;2023-02-11T07:51:06;35.50;27.00;18.00
77411;PMS7003;66484;49.968;19.140;2023-02-11T07:53:33;48.50;41.25;30.00
77411;PMS7003;66484;49.968;19.140;2023-02-11T07:55:59;39.50;33.50;27.00
77411;PMS7003;66484;49.968;19.140;2023-02-11T07:58:25;34.75;31.25;24.00
77411;PMS7003;66484;49.968;19.140;2023-02-11T08:00:51;45.50;37.50;24.50
77411;PMS7003;66484;49.968;19.140;2023-02-11T08:03:17;34.50;27.00;21.50
77411;PMS7003;66484;49.968;19.140;2023-02-11T08:05:43;44.50;38.50;24.75
77411;PMS7003;66484;49.968;19.140;2023-02-11T08:08:09;37.25;35.50;25.75
77411;PMS7003;66484;49.968;19.140;2023-02-11T08:10:35;48.75;35.25;21.00
77411;PMS7003;66484;49.968;19.140;2023-02-11T08:13:01;47.50;39.25;25.75
77411;PMS7003;66484;49.968;19.140;2023-02-11T08:15:27;73.25;57.25;39.25
77411;PMS7003;66484;49.968;19.140;2023-02-11T08:17:53;50.25;44.25;31.00
77411;PMS7003;66484;49.968;19.140;2023-02-11T08:20:19;40.50;34.00;23.00
77411;PMS7003;66484;49.968;19.140;2023-02-11T08:22:45;60.25;49.25;32.00
77411;PMS7003;66484;49.968;19.140;2023-02-11T08:25:10;20.50;18.75;9.25
77411;PMS7003;66484;49.968;19.140;2023-02-11T08:27:36;43.25;37.50;26.75
77411;PMS7003;66484;49.968;19.140;2023-02-11T08:30:02;69.50;48.75;33.25
77411;PMS7003;66484;49.968;19.140;2023-02-11T08:32:29;51.25;42.00;27.25
77411;PMS7003;66484;49.968;19.140;2023-02-11T08:34:54;57.00;49.75;32.50
77411;PMS7003;66484;49.968;19.140;2023-02-11T08:37:21;29.75;23.00;15.25
77411;PMS7003;66484;49.968;19.140;2023-02-11T08:39:47;41.50;33.75;25.00
77411;PMS7003;66484;49.968;19.140;2023-02-11T08:42:13;28.50;28.50;19.00
77411;PMS7003;66484;49.968;19.140;2023-02-11T08:44:41;35.75;31.25;22.75
77411;PMS7003;66484;49.968;19.140;2023-02-11T08:47:08;34.50;29.50;19.00
77411;PMS7003;66484;49.968;19.140;2023-02-11T08:49:34;33.00;33.00;24.50
77411;PMS7003;66484;49.968;19.140;2023-02-11T08:52:00;39.75;29.00;21.00
77411;PMS7003;66484;49.968;19.140;2023-02-11T08:54:31;32.50;29.00;19.75
77411;PMS7003;66484;49.968;19.140;2023-02-11T08:56:57;33.25;31.50;20.25
77411;PMS7003;66484;49.968;19.140;2023-02-11T08:59:23;35.25;29.00;21.25
77411;PMS7003;66484;49.968;19.140;2023-02-11T09:01:49;29.75;23.50;20.50
77411;PMS7003;66484;49.968;19.140;2023-02-11T09:04:15;43.50;33.00;27.75
77411;PMS7003;66484;49.968;19.140;2023-02-11T09:06:41;24.50;17.50;10.00
77411;PMS7003;66484;49.968;19.140;2023-02-11T09:09:09;42.50;32.25;22.00
77411;PMS7003;66484;49.968;19.140;2023-02-11T09:11:39;49.00;42.25;28.25
77411;PMS7003;66484;49.968;19.140;2023-02-11T09:14:05;43.00;39.00;26.25
77411;PMS7003;66484;49.968;19.140;2023-02-11T09:16:33;47.50;42.00;29.25
77411;PMS7003;66484;49.968;19.140;2023-02-11T09:19:00;64.50;50.50;32.00
77411;PMS7003;66484;49.968;19.140;2023-02-11T09:21:28;77.75;60.25;42.00
77411;PMS7003;66484;49.968;19.140;2023-02-11T09:23:54;77.75;59.50;37.00
77411;PMS7003;66484;49.968;19.140;2023-02-11T09:26:21;81.25;63.75;39.00
77411;PMS7003;66484;49.968;19.140;2023-02-11T09:28:51;74.75;58.50;39.00
77411;PMS7003;66484;49.968;19.140;2023-02-11T09:31:19;34.00;27.50;22.00
77411;PMS7003;66484;49.968;19.140;2023-02-11T09:33:47;65.25;48.25;29.00
77411;PMS7003;66484;49.968;19.140;2023-02-11T09:36:18;49.25;41.75;25.00
77411;PMS7003;66484;49.968;19.140;2023-02-11T09:38:44;73.00;53.00;32.50
77411;PMS7003;66484;49.968;19.140;2023-02-11T09:41:34;66.50;55.00;32.25
77411;PMS7003;66484;49.968;19.140;2023-02-11T09:44:04;44.75;42.25;24.75
77411;PMS7003;66484;49.968;19.140;2023-02-11T09:46:34;48.50;40.00;27.25
77411;PMS7003;66484;49.968;19.140;2023-02-11T09:49:03;64.25;47.00;28.50
77411;PMS7003;66484;49.968;19.140;2023-02-11T09:51:34;46.50;42.00;29.50
77411;PMS7003;66484;49.968;19.140;2023-02-11T09:54:10;54.75;42.25;28.50
77411;PMS7003;66484;49.968;19.140;2023-02-11T09:56:40;45.00;42.00;26.00
77411;PMS7003;66484;49.968;19.140;2023-02-11T09:59:08;38.50;32.50;20.75
77411;PMS7003;66484;49.968;19.140;2023-02-11T10:01:43;42.25;34.75;23.50
77411;PMS7003;66484;49.968;19.140;2023-02-11T10:06:44;45.75;36.50;25.50
77411;PMS7003;66484;49.968;19.140;2023-02-11T10:20:17;42.50;37.50;26.50
77411;PMS7003;66484;49.968;19.140;2023-02-11T10:22:46;42.00;36.50;25.00
77411;PMS7003;66484;49.968;19.140;2023-02-11T10:28:00;34.50;28.00;19.25
77411;PMS7003;66484;49.968;19.140;2023-02-11T10:33:26;45.00;37.25;26.00
77411;PMS7003;66484;49.968;19.140;2023-02-11T10:36:05;33.00;28.50;22.25
77411;PMS7003;66484;49.968;19.140;2023-02-11T10:38:33;30.25;30.25;23.75
77411;PMS7003;66484;49.968;19.140;2023-02-11T10:41:00;34.25;33.25;23.25
77411;PMS7003;66484;49.968;19.140;2023-02-11T10:43:27;55.25;47.25;29.25
77411;PMS7003;66484;49.968;19.140;2023-02-11T10:45:54;48.25;40.75;27.00
77411;PMS7003;66484;49.968;19.140;2023-02-11T10:56:39;44.00;41.50;29.50
77411;PMS7003;66484;49.968;19.140;2023-02-11T10:59:26;59.00;47.75;32.75
77411;PMS7003;66484;49.968;19.140;2023-02-11T11:01:57;51.50;43.00;28.75
77411;PMS7003;66484;49.968;19.140;2023-02-11T11:04:36;50.75;40.75;27.50
77411;PMS7003;66484;49.968;19.140;2023-02-11T11:14:55;52.75;40.25;28.00
77411;PMS7003;66484;49.968;19.140;2023-02-11T11:17:22;55.50;40.00;26.75
77411;PMS7003;66484;49.968;19.140;2023-02-11T11:19:50;53.00;44.75;30.00
77411;PMS7003;66484;49.968;19.140;2023-02-11T11:22:22;42.75;36.75;25.75
77411;PMS7003;66484;49.968;19.140;2023-02-11T11:24:48;41.25;37.50;25.25
77411;PMS7003;66484;49.968;19.140;2023-02-11T11:27:22;43.00;38.75;24.25
77411;PMS7003;66484;49.968;19.140;2023-02-11T11:29:50;43.75;37.75;25.75
77411;PMS7003;66484;49.968;19.140;2023-02-11T11:32:26;45.75;41.75;28.00
77411;PMS7003;66484;49.968;19.140;2023-02-11T11:34:54;42.00;37.75;27.00
77411;PMS7003;66484;49.968;19.140;2023-02-11T11:37:28;40.50;35.00;25.50
77411;PMS7003;66484;49.968;19.140;2023-02-11T11:42:34;47.50;41.75;23.00
77411;PMS7003;66484;49.968;19.140;2023-02-11T11:45:03;40.25;33.00;27.50
77411;PMS7003;66484;49.968;19.140;2023-02-11T11:47:54;45.00;38.50;28.50
77411;PMS7003;66484;49.968;19.140;2023-02-11T11:53:22;45.00;37.50;28.00
77411;PMS7003;66484;49.968;19.140;2023-02-11T11:56:05;38.75;27.50;24.00
77411;PMS7003;66484;49.968;19.140;2023-02-11T11:58:33;32.00;28.75;20.50
77411;PMS7003;66484;49.968;19.140;2023-02-11T12:14:43;40.50;36.25;20.00
77411;PMS7003;66484;49.968;19.140;2023-02-11T12:17:32;39.00;34.50;23.25
77411;PMS7003;66484;49.968;19.140;2023-02-11T12:25:27;37.00;33.25;23.25
77411;PMS7003;66484;49.968;19.140;2023-02-11T12:28:11;44.00;38.25;25.50
77411;PMS7003;66484;49.968;19.140;2023-02-11T12:34:21;47.25;41.75;28.00
77411;PMS7003;66484;49.968;19.140;2023-02-11T12:39:48;62.00;43.75;32.00
77411;PMS7003;66484;49.968;19.140;2023-02-11T12:45:26;43.75;35.50;26.25
77411;PMS7003;66484;49.968;19.140;2023-02-11T12:56:38;43.50;39.00;27.50
77411;PMS7003;66484;49.968;19.140;2023-02-11T13:02:23;55.25;45.50;31.25
77411;PMS7003;66484;49.968;19.140;2023-02-11T13:05:00;51.50;45.50;30.50
77411;PMS7003;66484;49.968;19.140;2023-02-11T13:07:32;37.50;29.00;22.00
77411;PMS7003;66484;49.968;19.140;2023-02-11T13:10:06;42.75;37.00;30.50
77411;PMS7003;66484;49.968;19.140;2023-02-11T13:12:55;50.50;42.25;28.00
77411;PMS7003;66484;49.968;19.140;2023-02-11T13:15:40;56.75;46.50;31.00
77411;PMS7003;66484;49.968;19.140;2023-02-11T13:20:57;47.00;40.50;29.00
77411;PMS7003;66484;49.968;19.140;2023-02-11T13:26:16;39.25;37.50;27.75
77411;PMS7003;66484;49.968;19.140;2023-02-11T13:28:56;40.50;36.25;26.75
77411;PMS7003;66484;49.968;19.140;2023-02-11T13:31:28;51.75;46.75;31.50
77411;PMS7003;66484;49.968;19.140;2023-02-11T13:33:55;45.00;35.25;23.25
77411;PMS7003;66484;49.968;19.140;2023-02-11T13:36:21;52.00;42.25;27.50
77411;PMS7003;66484;49.968;19.140;2023-02-11T13:39:16;61.00;45.50;30.25
77411;PMS7003;66484;49.968;19.140;2023-02-11T13:41:44;55.00;45.00;29.75
77411;PMS7003;66484;49.968;19.140;2023-02-11T13:49:38;71.50;58.25;38.50
77411;PMS7003;66484;49.968;19.140;2023-02-11T13:52:17;46.50;41.00;27.75
77411;PMS7003;66484;49.968;19.140;2023-02-11T13:54:49;71.50;56.75;37.00
77411;PMS7003;66484;49.968;19.140;2023-02-11T14:06:13;54.50;40.50;26.00
77411;PMS7003;66484;49.968;19.140;2023-02-11T14:14:19;36.00;28.75;22.00
77411;PMS7003;66484;49.968;19.140;2023-02-11T14:22:14;34.50;32.00;25.25
77411;PMS7003;66484;49.968;19.140;2023-02-11T14:24:50;47.00;40.00;26.25
77411;PMS7003;66484;49.968;19.140;2023-02-11T14:33:56;40.00;37.50;27.50
77411;PMS7003;66484;49.968;19.140;2023-02-11T14:36:40;46.25;40.00;27.00
77411;PMS7003;66484;49.968;19.140;2023-02-11T14:42:02;46.00;42.50;30.75
77411;PMS7003;66484;49.968;19.140;2023-02-11T14:44:29;48.75;39.00;28.00
77411;PMS7003;66484;49.968;19.140;2023-02-11T14:46:57;39.25;36.00;19.25
77411;PMS7003;66484;49.968;19.140;2023-02-11T14:49:27;41.00;37.00;27.50
77411;PMS7003;66484;49.968;19.140;2023-02-11T14:57:33;42.50;37.25;27.50
77411;PMS7003;66484;49.968;19.140;2023-02-11T15:00:01;57.00;44.50;30.50
77411;PMS7003;66484;49.968;19.140;2023-02-11T15:05:16;53.00;45.50;30.25
77411;PMS7003;66484;49.968;19.140;2023-02-11T15:07:45;49.50;41.25;27.75
77411;PMS7003;66484;49.968;19.140;2023-02-11T15:12:58;49.00;43.50;31.50
77411;PMS7003;66484;49.968;19.140;2023-02-11T15:15:26;49.25;41.00;21.50
77411;PMS7003;66484;49.968;19.140;2023-02-11T15:17:55;56.25;45.00;31.50
77411;PMS7003;66484;49.968;19.140;2023-02-11T15:20:24;54.25;47.50;32.00
77411;PMS7003;66484;49.968;19.140;2023-02-11T15:22:58;75.50;60.75;41.25
77411;PMS7003;66484;49.968;19.140;2023-02-11T15:25:26;64.75;50.75;34.00
77411;PMS7003;66484;49.968;19.140;2023-02-11T15:27:54;87.00;66.00;40.75
77411;PMS7003;66484;49.968;19.140;2023-02-11T15:32:52;65.50;49.00;33.00
77411;PMS7003;66484;49.968;19.140;2023-02-11T15:35:37;68.50;47.50;29.00
77411;PMS7003;66484;49.968;19.140;2023-02-11T15:38:08;78.25;61.00;37.25
77411;PMS7003;66484;49.968;19.140;2023-02-11T15:40:36;60.25;44.50;32.50
77411;PMS7003;66484;49.968;19.140;2023-02-11T15:43:03;67.25;54.50;37.50
77411;PMS7003;66484;49.968;19.140;2023-02-11T15:50:31;54.75;47.00;33.00
77411;PMS7003;66484;49.968;19.140;2023-02-11T15:55:56;62.75;51.75;35.00
77411;PMS7003;66484;49.968;19.140;2023-02-11T15:58:28;55.75;47.50;31.75
77411;PMS7003;66484;49.968;19.140;2023-02-11T16:01:01;53.50;44.00;29.50
77411;PMS7003;66484;49.968;19.140;2023-02-11T16:03:27;54.75;46.25;30.75
77411;PMS7003;66484;49.968;19.140;2023-02-11T16:06:42;55.25;43.75;29.00
77411;PMS7003;66484;49.968;19.140;2023-02-11T16:08:55;60.00;48.00;31.00
77411;PMS7003;66484;49.968;19.140;2023-02-11T16:11:30;57.75;48.00;32.50
77411;PMS7003;66484;49.968;19.140;2023-02-11T16:13:58;64.25;54.75;32.00
77411;PMS7003;66484;49.968;19.140;2023-02-11T16:16:29;73.75;51.00;35.00
77411;PMS7003;66484;49.968;19.140;2023-02-11T16:19:00;54.50;39.00;25.50
77411;PMS7003;66484;49.968;19.140;2023-02-11T16:21:32;63.00;45.50;29.00
77411;PMS7003;66484;49.968;19.140;2023-02-11T16:24:02;47.00;41.75;29.25
77411;PMS7003;66484;49.968;19.140;2023-02-11T16:26:30;33.25;31.75;27.50
77411;PMS7003;66484;49.968;19.140;2023-02-11T16:29:05;51.00;45.75;32.50
77411;PMS7003;66484;49.968;19.140;2023-02-11T16:31:34;62.75;51.75;31.75
77411;PMS7003;66484;49.968;19.140;2023-02-11T16:34:06;64.50;44.50;31.00
77411;PMS7003;66484;49.968;19.140;2023-02-11T16:36:36;69.00;50.25;32.00
77411;PMS7003;66484;49.968;19.140;2023-02-11T16:39:03;66.25;46.75;31.50
77411;PMS7003;66484;49.968;19.140;2023-02-11T16:41:28;58.25;48.00;27.50